sensor_id;sensor_type;location;lat;lon;timestamp;temperature;humidity
23251;DHT22;11794;49.730;10.088;2022-12-29T00:01:07;8.60;99.90
23251;DHT22;11794;49.730;10.088;2022-12-29T00:03:32;8.60;99.90
23251;DHT22;11794;49.730;10.088;2022-12-29T00:05:58;8.60;99.90
23251;DHT22;11794;49.730;10.088;2022-12-29T00:08:24;8.50;99.90
23251;DHT22;11794;49.730;10.088;2022-12-29T00:11:08;8.50;99.90
23251;DHT22;11794;49.730;10.088;2022-12-29T00:13:34;8.60;99.90
23251;DHT22;11794;49.730;10.088;2022-12-29T00:16:19;8.60;99.90
23251;DHT22;11794;49.730;10.088;2022-12-29T00:18:44;8.60;99.90
23251;DHT22;11794;49.730;10.088;2022-12-29T00:21:15;8.60;99.90
23251;DHT22;11794;49.730;10.088;2022-12-29T00:23:59;8.60;99.90
23251;DHT22;11794;49.730;10.088;2022-12-29T00:26:45;8.60;99.90
23251;DHT22;11794;49.730;10.088;2022-12-29T00:29:29;8.50;99.90
23251;DHT22;11794;49.730;10.088;2022-12-29T00:32:30;8.50;99.90
23251;DHT22;11794;49.730;10.088;2022-12-29T00:38:05;8.50;99.90
23251;DHT22;11794;49.730;10.088;2022-12-29T00:40:51;8.60;99.90
23251;DHT22;11794;49.730;10.088;2022-12-29T00:43:35;8.60;99.90
23251;DHT22;11794;49.730;10.088;2022-12-29T00:46:19;8.60;99.90
23251;DHT22;11794;49.730;10.088;2022-12-29T00:48:44;8.60;99.90
23251;DHT22;11794;49.730;10.088;2022-12-29T00:51:28;8.70;99.90
23251;DHT22;11794;49.730;10.088;2022-12-29T00:53:54;8.70;99.90
23251;DHT22;11794;49.730;10.088;2022-12-29T00:56:19;8.80;99.90
23251;DHT22;11794;49.730;10.088;2022-12-29T00:58:45;8.80;99.90
23251;DHT22;11794;49.730;10.088;2022-12-29T01:01:11;8.80;99.90
23251;DHT22;11794;49.730;10.088;2022-12-29T01:03:37;8.80;99.90
23251;DHT22;11794;49.730;10.088;2022-12-29T01:06:05;8.80;99.90
23251;DHT22;11794;49.730;10.088;2022-12-29T01:08:32;8.80;99.90
23251;DHT22;11794;49.730;10.088;2022-12-29T01:11:09;8.80;99.90
23251;DHT22;11794;49.730;10.088;2022-12-29T01:13:36;8.80;99.90
23251;DHT22;11794;49.730;10.088;2022-12-29T01:16:04;8.80;99.90
23251;DHT22;11794;49.730;10.088;2022-12-29T01:18:29;8.80;99.90
23251;DHT22;11794;49.730;10.088;2022-12-29T01:21:00;8.80;99.90
23251;DHT22;11794;49.730;10.088;2022-12-29T01:23:25;8.70;99.90
23251;DHT22;11794;49.730;10.088;2022-12-29T01:25:51;8.80;99.90
23251;DHT22;11794;49.730;10.088;2022-12-29T01:28:16;8.90;99.90
23251;DHT22;11794;49.730;10.088;2022-12-29T01:30:42;8.90;99.90
23251;DHT22;11794;49.730;10.088;2022-12-29T01:33:07;8.90;99.90
23251;DHT22;11794;49.730;10.088;2022-12-29T01:35:33;8.90;99.90
23251;DHT22;11794;49.730;10.088;2022-12-29T01:37:58;9.00;99.90
23251;DHT22;11794;49.730;10.088;2022-12-29T01:40:24;9.10;99.90
23251;DHT22;11794;49.730;10.088;2022-12-29T01:42:50;9.10;99.90
23251;DHT22;11794;49.730;10.088;2022-12-29T01:45:17;9.20;99.90
23251;DHT22;11794;49.730;10.088;2022-12-29T01:47:50;9.30;99.90
23251;DHT22;11794;49.730;10.088;2022-12-29T01:50:39;9.30;99.90
23251;DHT22;11794;49.730;10.088;2022-12-29T01:53:34;9.30;99.90
23251;DHT22;11794;49.730;10.088;2022-12-29T01:56:04;9.30;99.90
23251;DHT22;11794;49.730;10.088;2022-12-29T01:58:33;9.30;99.90
23251;DHT22;11794;49.730;10.088;2022-12-29T02:01:00;9.30;99.90
23251;DHT22;11794;49.730;10.088;2022-12-29T02:03:28;9.30;99.90
23251;DHT22;11794;49.730;10.088;2022-12-29T02:06:07;9.30;99.90
23251;DHT22;11794;49.730;10.088;2022-12-29T02:08:34;9.40;99.90
23251;DHT22;11794;49.730;10.088;2022-12-29T02:11:00;9.50;99.90
23251;DHT22;11794;49.730;10.088;2022-12-29T02:13:27;9.50;99.90
23251;DHT22;11794;49.730;10.088;2022-12-29T02:16:01;9.70;99.90
23251;DHT22;11794;49.730;10.088;2022-12-29T02:18:48;9.80;99.90
23251;DHT22;11794;49.730;10.088;2022-12-29T02:32:03;9.90;99.90
23251;DHT22;11794;49.730;10.088;2022-12-29T02:34:59;9.90;99.90
23251;DHT22;11794;49.730;10.088;2022-12-29T02:37:34;9.80;99.90
23251;DHT22;11794;49.730;10.088;2022-12-29T02:40:25;9.70;99.90
23251;DHT22;11794;49.730;10.088;2022-12-29T02:49:16;9.50;99.90
23251;DHT22;11794;49.730;10.088;2022-12-29T02:51:48;9.50;99.90
23251;DHT22;11794;49.730;10.088;2022-12-29T02:54:19;9.40;99.90
23251;DHT22;11794;49.730;10.088;2022-12-29T02:57:08;9.40;99.90
23251;DHT22;11794;49.730;10.088;2022-12-29T02:59:35;9.40;99.90
23251;DHT22;11794;49.730;10.088;2022-12-29T03:02:11;9.30;99.90
23251;DHT22;11794;49.730;10.088;2022-12-29T03:05:06;9.30;99.90
23251;DHT22;11794;49.730;10.088;2022-12-29T03:07:39;9.30;99.90
23251;DHT22;11794;49.730;10.088;2022-12-29T03:10:14;9.30;99.90
23251;DHT22;11794;49.730;10.088;2022-12-29T03:15:44;9.30;99.90
23251;DHT22;11794;49.730;10.088;2022-12-29T03:21:50;9.30;99.90
23251;DHT22;11794;49.730;10.088;2022-12-29T03:24:40;9.30;99.90
23251;DHT22;11794;49.730;10.088;2022-12-29T03:27:08;9.30;99.90
23251;DHT22;11794;49.730;10.088;2022-12-29T03:29:39;9.40;99.90
23251;DHT22;11794;49.730;10.088;2022-12-29T03:32:07;9.40;99.90
23251;DHT22;11794;49.730;10.088;2022-12-29T03:34:35;9.40;99.90
23251;DHT22;11794;49.730;10.088;2022-12-29T03:37:06;9.30;99.90
23251;DHT22;11794;49.730;10.088;2022-12-29T03:39:34;9.30;99.90
23251;DHT22;11794;49.730;10.088;2022-12-29T03:42:04;9.30;99.90
23251;DHT22;11794;49.730;10.088;2022-12-29T03:44:33;9.40;99.90
23251;DHT22;11794;49.730;10.088;2022-12-29T03:46:58;9.40;99.90
23251;DHT22;11794;49.730;10.088;2022-12-29T03:49:24;9.50;99.90
23251;DHT22;11794;49.730;10.088;2022-12-29T03:51:49;9.50;99.90
23251;DHT22;11794;49.730;10.088;2022-12-29T03:54:15;9.50;99.90
23251;DHT22;11794;49.730;10.088;2022-12-29T03:56:40;9.40;99.90
23251;DHT22;11794;49.730;10.088;2022-12-29T03:59:06;9.40;99.90
23251;DHT22;11794;49.730;10.088;2022-12-29T04:01:31;9.40;99.90
23251;DHT22;11794;49.730;10.088;2022-12-29T04:03:57;9.40;99.90
23251;DHT22;11794;49.730;10.088;2022-12-29T04:06:22;9.40;99.90
23251;DHT22;11794;49.730;10.088;2022-12-29T04:08:48;9.50;99.90
23251;DHT22;11794;49.730;10.088;2022-12-29T04:11:14;9.40;99.90
23251;DHT22;11794;49.730;10.088;2022-12-29T04:13:40;9.50;99.90
23251;DHT22;11794;49.730;10.088;2022-12-29T04:16:06;9.50;99.90
23251;DHT22;11794;49.730;10.088;2022-12-29T04:18:32;9.50;99.90
23251;DHT22;11794;49.730;10.088;2022-12-29T04:20:57;9.50;99.90
23251;DHT22;11794;49.730;10.088;2022-12-29T04:23:26;9.60;99.90
23251;DHT22;11794;49.730;10.088;2022-12-29T04:25:52;9.60;99.90
23251;DHT22;11794;49.730;10.088;2022-12-29T04:28:18;9.70;99.90
23251;DHT22;11794;49.730;10.088;2022-12-29T04:30:44;9.70;99.90
23251;DHT22;11794;49.730;10.088;2022-12-29T04:33:10;9.70;99.90
23251;DHT22;11794;49.730;10.088;2022-12-29T04:35:35;9.70;99.90
23251;DHT22;11794;49.730;10.088;2022-12-29T04:38:02;9.80;99.90
23251;DHT22;11794;49.730;10.088;2022-12-29T04:40:27;9.80;99.90
23251;DHT22;11794;49.730;10.088;2022-12-29T04:42:53;9.80;99.90
23251;DHT22;11794;49.730;10.088;2022-12-29T04:45:18;9.80;99.90
23251;DHT22;11794;49.730;10.088;2022-12-29T04:47:44;9.80;99.90
23251;DHT22;11794;49.730;10.088;2022-12-29T04:50:10;9.90;99.90
23251;DHT22;11794;49.730;10.088;2022-12-29T04:52:36;9.90;99.90
23251;DHT22;11794;49.730;10.088;2022-12-29T04:55:01;9.90;99.90
23251;DHT22;11794;49.730;10.088;2022-12-29T04:57:27;9.90;99.90
23251;DHT22;11794;49.730;10.088;2022-12-29T04:59:53;9.80;99.90
23251;DHT22;11794;49.730;10.088;2022-12-29T05:02:18;9.90;99.90
23251;DHT22;11794;49.730;10.088;2022-12-29T05:04:44;9.80;99.90
23251;DHT22;11794;49.730;10.088;2022-12-29T05:07:10;9.70;99.90
23251;DHT22;11794;49.730;10.088;2022-12-29T05:09:35;9.70;99.90
23251;DHT22;11794;49.730;10.088;2022-12-29T05:12:01;9.70;99.90
23251;DHT22;11794;49.730;10.088;2022-12-29T05:14:26;9.70;99.90
23251;DHT22;11794;49.730;10.088;2022-12-29T05:16:52;9.80;99.90
23251;DHT22;11794;49.730;10.088;2022-12-29T05:19:17;9.80;99.90
23251;DHT22;11794;49.730;10.088;2022-12-29T05:21:43;9.80;99.90
23251;DHT22;11794;49.730;10.088;2022-12-29T05:24:09;9.80;99.90
23251;DHT22;11794;49.730;10.088;2022-12-29T05:26:34;9.80;99.90
23251;DHT22;11794;49.730;10.088;2022-12-29T05:29:00;9.80;99.90
23251;DHT22;11794;49.730;10.088;2022-12-29T05:31:26;9.80;99.90
23251;DHT22;11794;49.730;10.088;2022-12-29T05:33:51;9.90;99.90
23251;DHT22;11794;49.730;10.088;2022-12-29T05:36:17;9.90;99.90
23251;DHT22;11794;49.730;10.088;2022-12-29T05:38:43;9.90;99.90
23251;DHT22;11794;49.730;10.088;2022-12-29T05:41:09;9.90;99.90
23251;DHT22;11794;49.730;10.088;2022-12-29T05:43:34;9.90;99.90
23251;DHT22;11794;49.730;10.088;2022-12-29T05:46:00;10.00;99.90
23251;DHT22;11794;49.730;10.088;2022-12-29T05:48:25;10.00;99.90
23251;DHT22;11794;49.730;10.088;2022-12-29T05:50:51;9.90;99.90
23251;DHT22;11794;49.730;10.088;2022-12-29T05:53:17;9.90;99.90
23251;DHT22;11794;49.730;10.088;2022-12-29T05:55:46;9.80;99.90
23251;DHT22;11794;49.730;10.088;2022-12-29T05:58:12;9.80;99.90
23251;DHT22;11794;49.730;10.088;2022-12-29T06:00:37;9.80;99.90
23251;DHT22;11794;49.730;10.088;2022-12-29T06:03:03;9.90;99.90
23251;DHT22;11794;49.730;10.088;2022-12-29T06:05:29;9.80;99.90
23251;DHT22;11794;49.730;10.088;2022-12-29T06:07:54;9.90;99.90
23251;DHT22;11794;49.730;10.088;2022-12-29T06:10:20;9.90;99.90
23251;DHT22;11794;49.730;10.088;2022-12-29T06:12:45;10.00;99.90
23251;DHT22;11794;49.730;10.088;2022-12-29T06:15:12;10.00;99.90
23251;DHT22;11794;49.730;10.088;2022-12-29T06:17:37;10.10;99.90
23251;DHT22;11794;49.730;10.088;2022-12-29T06:20:03;10.10;99.90
23251;DHT22;11794;49.730;10.088;2022-12-29T06:22:29;10.20;99.90
23251;DHT22;11794;49.730;10.088;2022-12-29T06:24:54;10.20;99.90
23251;DHT22;11794;49.730;10.088;2022-12-29T06:27:20;10.20;99.90
23251;DHT22;11794;49.730;10.088;2022-12-29T06:29:45;10.20;99.90
23251;DHT22;11794;49.730;10.088;2022-12-29T06:32:11;10.10;99.90
23251;DHT22;11794;49.730;10.088;2022-12-29T06:34:37;10.10;99.90
23251;DHT22;11794;49.730;10.088;2022-12-29T06:37:03;10.20;99.90
23251;DHT22;11794;49.730;10.088;2022-12-29T06:39:28;10.20;99.90
23251;DHT22;11794;49.730;10.088;2022-12-29T06:41:54;10.20;99.90
23251;DHT22;11794;49.730;10.088;2022-12-29T06:44:20;10.20;99.90
23251;DHT22;11794;49.730;10.088;2022-12-29T06:46:47;10.10;99.90
23251;DHT22;11794;49.730;10.088;2022-12-29T06:49:12;10.10;99.90
23251;DHT22;11794;49.730;10.088;2022-12-29T06:51:38;10.20;99.90
23251;DHT22;11794;49.730;10.088;2022-12-29T06:54:03;10.10;99.90
23251;DHT22;11794;49.730;10.088;2022-12-29T06:56:29;10.10;99.90
23251;DHT22;11794;49.730;10.088;2022-12-29T06:58:54;9.90;99.90
23251;DHT22;11794;49.730;10.088;2022-12-29T07:01:20;9.90;99.90
23251;DHT22;11794;49.730;10.088;2022-12-29T07:03:46;9.90;99.90
23251;DHT22;11794;49.730;10.088;2022-12-29T07:06:11;10.00;99.90
23251;DHT22;11794;49.730;10.088;2022-12-29T07:08:36;10.10;99.90
23251;DHT22;11794;49.730;10.088;2022-12-29T07:11:02;10.10;99.90
23251;DHT22;11794;49.730;10.088;2022-12-29T07:13:28;10.00;99.90
23251;DHT22;11794;49.730;10.088;2022-12-29T07:15:53;10.00;99.90
23251;DHT22;11794;49.730;10.088;2022-12-29T07:18:19;10.10;99.90
23251;DHT22;11794;49.730;10.088;2022-12-29T07:20:45;10.00;99.90
23251;DHT22;11794;49.730;10.088;2022-12-29T07:23:10;10.00;99.90
23251;DHT22;11794;49.730;10.088;2022-12-29T07:25:36;10.00;99.90
23251;DHT22;11794;49.730;10.088;2022-12-29T07:28:03;10.00;99.90
23251;DHT22;11794;49.730;10.088;2022-12-29T07:30:29;9.90;99.90
23251;DHT22;11794;49.730;10.088;2022-12-29T07:32:54;10.00;99.90
23251;DHT22;11794;49.730;10.088;2022-12-29T07:35:20;9.90;99.90
23251;DHT22;11794;49.730;10.088;2022-12-29T07:37:45;9.90;99.90
23251;DHT22;11794;49.730;10.088;2022-12-29T07:40:11;10.00;99.90
23251;DHT22;11794;49.730;10.088;2022-12-29T07:42:38;10.00;99.90
23251;DHT22;11794;49.730;10.088;2022-12-29T07:45:03;10.00;99.90
23251;DHT22;11794;49.730;10.088;2022-12-29T07:47:29;10.10;99.90
23251;DHT22;11794;49.730;10.088;2022-12-29T07:49:55;10.10;99.90
23251;DHT22;11794;49.730;10.088;2022-12-29T07:52:20;10.10;99.90
23251;DHT22;11794;49.730;10.088;2022-12-29T07:54:46;10.10;99.90
23251;DHT22;11794;49.730;10.088;2022-12-29T07:57:11;10.20;99.90
23251;DHT22;11794;49.730;10.088;2022-12-29T07:59:37;10.10;99.90
23251;DHT22;11794;49.730;10.088;2022-12-29T08:02:02;10.20;99.90
23251;DHT22;11794;49.730;10.088;2022-12-29T08:04:28;10.40;99.90
23251;DHT22;11794;49.730;10.088;2022-12-29T08:06:53;10.50;99.90
23251;DHT22;11794;49.730;10.088;2022-12-29T08:09:19;10.50;99.90
23251;DHT22;11794;49.730;10.088;2022-12-29T08:11:44;10.50;99.90
23251;DHT22;11794;49.730;10.088;2022-12-29T08:14:10;10.60;99.90
23251;DHT22;11794;49.730;10.088;2022-12-29T08:16:36;10.60;99.90
23251;DHT22;11794;49.730;10.088;2022-12-29T08:19:02;10.60;99.90
23251;DHT22;11794;49.730;10.088;2022-12-29T08:21:29;10.60;99.90
23251;DHT22;11794;49.730;10.088;2022-12-29T08:23:55;10.60;99.90
23251;DHT22;11794;49.730;10.088;2022-12-29T08:26:20;10.50;99.90
23251;DHT22;11794;49.730;10.088;2022-12-29T08:28:46;10.60;99.90
23251;DHT22;11794;49.730;10.088;2022-12-29T08:31:11;10.50;99.90
23251;DHT22;11794;49.730;10.088;2022-12-29T08:33:37;10.50;99.90
23251;DHT22;11794;49.730;10.088;2022-12-29T08:36:04;10.50;99.90
23251;DHT22;11794;49.730;10.088;2022-12-29T08:38:30;10.60;99.90
23251;DHT22;11794;49.730;10.088;2022-12-29T08:40:56;10.60;99.90
23251;DHT22;11794;49.730;10.088;2022-12-29T08:43:22;10.60;99.90
23251;DHT22;11794;49.730;10.088;2022-12-29T08:45:48;10.60;99.90
23251;DHT22;11794;49.730;10.088;2022-12-29T08:48:14;10.70;99.90
23251;DHT22;11794;49.730;10.088;2022-12-29T08:50:43;10.80;99.90
23251;DHT22;11794;49.730;10.088;2022-12-29T08:53:09;10.80;99.90
23251;DHT22;11794;49.730;10.088;2022-12-29T08:55:35;10.80;99.90
23251;DHT22;11794;49.730;10.088;2022-12-29T08:58:01;10.80;99.90
23251;DHT22;11794;49.730;10.088;2022-12-29T09:00:26;10.80;99.90
23251;DHT22;11794;49.730;10.088;2022-12-29T09:02:52;10.90;99.90
23251;DHT22;11794;49.730;10.088;2022-12-29T09:05:17;10.90;99.90
23251;DHT22;11794;49.730;10.088;2022-12-29T09:07:43;11.00;99.90
23251;DHT22;11794;49.730;10.088;2022-12-29T09:10:09;11.00;99.90
23251;DHT22;11794;49.730;10.088;2022-12-29T09:12:34;11.00;99.90
23251;DHT22;11794;49.730;10.088;2022-12-29T09:15:00;11.00;99.90
23251;DHT22;11794;49.730;10.088;2022-12-29T09:17:25;11.00;99.90
23251;DHT22;11794;49.730;10.088;2022-12-29T09:20:14;11.10;99.90
23251;DHT22;11794;49.730;10.088;2022-12-29T09:22:41;11.10;99.90
23251;DHT22;11794;49.730;10.088;2022-12-29T09:25:07;11.10;99.90
23251;DHT22;11794;49.730;10.088;2022-12-29T09:27:34;11.10;99.90
23251;DHT22;11794;49.730;10.088;2022-12-29T09:30:00;11.20;99.90
23251;DHT22;11794;49.730;10.088;2022-12-29T09:32:25;11.20;99.90
23251;DHT22;11794;49.730;10.088;2022-12-29T09:34:51;11.20;99.90
23251;DHT22;11794;49.730;10.088;2022-12-29T09:37:16;11.30;99.90
23251;DHT22;11794;49.730;10.088;2022-12-29T09:39:42;11.20;99.90
23251;DHT22;11794;49.730;10.088;2022-12-29T09:45:16;11.20;99.90
23251;DHT22;11794;49.730;10.088;2022-12-29T09:47:43;11.30;99.90
23251;DHT22;11794;49.730;10.088;2022-12-29T09:52:47;11.20;99.90
23251;DHT22;11794;49.730;10.088;2022-12-29T09:55:16;11.30;99.90
23251;DHT22;11794;49.730;10.088;2022-12-29T09:57:57;11.30;99.90
23251;DHT22;11794;49.730;10.088;2022-12-29T10:00:38;11.20;99.90
23251;DHT22;11794;49.730;10.088;2022-12-29T10:03:17;11.20;99.90
23251;DHT22;11794;49.730;10.088;2022-12-29T10:05:50;11.30;99.90
23251;DHT22;11794;49.730;10.088;2022-12-29T10:10:59;11.30;99.90
23251;DHT22;11794;49.730;10.088;2022-12-29T10:16:25;11.30;99.90
23251;DHT22;11794;49.730;10.088;2022-12-29T10:19:14;11.30;99.90
23251;DHT22;11794;49.730;10.088;2022-12-29T10:24:21;11.30;99.90
23251;DHT22;11794;49.730;10.088;2022-12-29T10:26:49;11.30;99.90
23251;DHT22;11794;49.730;10.088;2022-12-29T10:29:20;11.40;99.90
23251;DHT22;11794;49.730;10.088;2022-12-29T10:32:00;11.40;99.90
23251;DHT22;11794;49.730;10.088;2022-12-29T10:34:30;11.60;99.90
23251;DHT22;11794;49.730;10.088;2022-12-29T10:37:27;11.50;99.90
23251;DHT22;11794;49.730;10.088;2022-12-29T10:39:53;11.50;99.90
23251;DHT22;11794;49.730;10.088;2022-12-29T10:42:34;11.50;99.90
23251;DHT22;11794;49.730;10.088;2022-12-29T10:45:03;11.60;99.90
23251;DHT22;11794;49.730;10.088;2022-12-29T10:47:35;11.70;99.90
23251;DHT22;11794;49.730;10.088;2022-12-29T10:50:04;11.70;99.90
23251;DHT22;11794;49.730;10.088;2022-12-29T10:52:31;11.70;99.90
23251;DHT22;11794;49.730;10.088;2022-12-29T10:55:17;11.80;99.90
23251;DHT22;11794;49.730;10.088;2022-12-29T10:57:45;12.10;99.90
23251;DHT22;11794;49.730;10.088;2022-12-29T11:00:19;12.10;99.90
23251;DHT22;11794;49.730;10.088;2022-12-29T11:08:35;12.10;99.90
23251;DHT22;11794;49.730;10.088;2022-12-29T11:11:08;12.10;99.90
23251;DHT22;11794;49.730;10.088;2022-12-29T11:13:50;12.40;99.90
23251;DHT22;11794;49.730;10.088;2022-12-29T11:16:30;13.30;99.90
23251;DHT22;11794;49.730;10.088;2022-12-29T11:18:56;14.40;99.90
23251;DHT22;11794;49.730;10.088;2022-12-29T11:23:58;15.80;99.90
23251;DHT22;11794;49.730;10.088;2022-12-29T11:26:25;15.80;99.90
23251;DHT22;11794;49.730;10.088;2022-12-29T11:29:19;16.10;99.90
23251;DHT22;11794;49.730;10.088;2022-12-29T11:31:48;15.90;99.90
23251;DHT22;11794;49.730;10.088;2022-12-29T11:34:25;14.70;99.90
23251;DHT22;11794;49.730;10.088;2022-12-29T11:36:54;14.30;99.90
23251;DHT22;11794;49.730;10.088;2022-12-29T11:39:40;14.40;99.90
23251;DHT22;11794;49.730;10.088;2022-12-29T11:42:18;13.90;99.90
23251;DHT22;11794;49.730;10.088;2022-12-29T11:44:47;13.60;99.90
23251;DHT22;11794;49.730;10.088;2022-12-29T11:47:28;13.70;99.90
23251;DHT22;11794;49.730;10.088;2022-12-29T11:49:57;13.60;99.90
23251;DHT22;11794;49.730;10.088;2022-12-29T11:52:26;13.80;99.90
23251;DHT22;11794;49.730;10.088;2022-12-29T11:54:53;14.10;99.90
23251;DHT22;11794;49.730;10.088;2022-12-29T11:57:22;14.20;99.90
23251;DHT22;11794;49.730;10.088;2022-12-29T11:59:55;14.10;99.90
23251;DHT22;11794;49.730;10.088;2022-12-29T12:02:42;13.70;99.90
23251;DHT22;11794;49.730;10.088;2022-12-29T12:05:23;14.10;99.90
23251;DHT22;11794;49.730;10.088;2022-12-29T12:10:26;14.80;99.90
23251;DHT22;11794;49.730;10.088;2022-12-29T12:15:39;15.50;99.90
23251;DHT22;11794;49.730;10.088;2022-12-29T12:18:18;15.50;99.90
23251;DHT22;11794;49.730;10.088;2022-12-29T12:20:52;15.40;99.90
23251;DHT22;11794;49.730;10.088;2022-12-29T12:26:17;15.20;99.90
23251;DHT22;11794;49.730;10.088;2022-12-29T12:28:54;15.50;99.90
23251;DHT22;11794;49.730;10.088;2022-12-29T12:31:55;15.30;99.90
23251;DHT22;11794;49.730;10.088;2022-12-29T12:34:32;15.70;99.90
23251;DHT22;11794;49.730;10.088;2022-12-29T12:40:17;16.60;99.90
23251;DHT22;11794;49.730;10.088;2022-12-29T12:45:49;16.50;99.90
23251;DHT22;11794;49.730;10.088;2022-12-29T12:51:33;16.60;99.90
23251;DHT22;11794;49.730;10.088;2022-12-29T12:59:50;17.00;99.90
23251;DHT22;11794;49.730;10.088;2022-12-29T13:11:30;15.80;99.90
23251;DHT22;11794;49.730;10.088;2022-12-29T13:13:57;15.20;99.90
23251;DHT22;11794;49.730;10.088;2022-12-29T13:16:38;14.00;99.90
23251;DHT22;11794;49.730;10.088;2022-12-29T13:19:14;13.60;99.90
23251;DHT22;11794;49.730;10.088;2022-12-29T13:22:30;13.30;99.90
23251;DHT22;11794;49.730;10.088;2022-12-29T13:24:56;13.10;99.90
23251;DHT22;11794;49.730;10.088;2022-12-29T13:30:04;12.70;99.90
23251;DHT22;11794;49.730;10.088;2022-12-29T13:32:55;12.50;99.90
23251;DHT22;11794;49.730;10.088;2022-12-29T13:35:32;12.40;99.90
23251;DHT22;11794;49.730;10.088;2022-12-29T13:38:59;12.40;99.90
23251;DHT22;11794;49.730;10.088;2022-12-29T13:41:08;12.40;99.90
23251;DHT22;11794;49.730;10.088;2022-12-29T13:43:37;12.20;99.90
23251;DHT22;11794;49.730;10.088;2022-12-29T13:46:09;12.10;99.90
23251;DHT22;11794;49.730;10.088;2022-12-29T13:48:46;12.00;99.90
23251;DHT22;11794;49.730;10.088;2022-12-29T13:51:13;11.90;99.90
23251;DHT22;11794;49.730;10.088;2022-12-29T13:59:32;11.90;99.90
23251;DHT22;11794;49.730;10.088;2022-12-29T14:02:15;11.90;99.90
23251;DHT22;11794;49.730;10.088;2022-12-29T14:05:01;12.10;99.90
23251;DHT22;11794;49.730;10.088;2022-12-29T14:07:28;12.90;99.90
23251;DHT22;11794;49.730;10.088;2022-12-29T14:09:55;12.80;99.90
23251;DHT22;11794;49.730;10.088;2022-12-29T14:12:34;12.30;99.90
23251;DHT22;11794;49.730;10.088;2022-12-29T14:17:36;12.20;99.90
23251;DHT22;11794;49.730;10.088;2022-12-29T14:20:04;12.30;99.90
23251;DHT22;11794;49.730;10.088;2022-12-29T14:22:30;12.50;99.90
23251;DHT22;11794;49.730;10.088;2022-12-29T14:24:56;12.80;99.90
23251;DHT22;11794;49.730;10.088;2022-12-29T14:29:48;12.30;99.90
23251;DHT22;11794;49.730;10.088;2022-12-29T14:34:52;12.00;99.90
23251;DHT22;11794;49.730;10.088;2022-12-29T14:37:35;11.80;99.90
23251;DHT22;11794;49.730;10.088;2022-12-29T14:40:24;11.70;99.90
23251;DHT22;11794;49.730;10.088;2022-12-29T14:42:53;11.50;99.90
23251;DHT22;11794;49.730;10.088;2022-12-29T14:47:49;11.30;99.90
23251;DHT22;11794;49.730;10.088;2022-12-29T14:50:42;11.20;99.90
23251;DHT22;11794;49.730;10.088;2022-12-29T14:53:46;11.20;99.90
23251;DHT22;11794;49.730;10.088;2022-12-29T14:56:14;11.20;99.90
23251;DHT22;11794;49.730;10.088;2022-12-29T14:58:50;11.10;99.90
23251;DHT22;11794;49.730;10.088;2022-12-29T15:03:46;11.10;99.90
23251;DHT22;11794;49.730;10.088;2022-12-29T15:06:15;11.10;99.90
23251;DHT22;11794;49.730;10.088;2022-12-29T15:08:51;11.00;99.90
23251;DHT22;11794;49.730;10.088;2022-12-29T15:11:22;11.00;99.90
23251;DHT22;11794;49.730;10.088;2022-12-29T15:13:48;11.00;99.90
23251;DHT22;11794;49.730;10.088;2022-12-29T15:16:26;10.90;99.90
23251;DHT22;11794;49.730;10.088;2022-12-29T15:18:54;10.90;99.90
23251;DHT22;11794;49.730;10.088;2022-12-29T15:21:39;11.00;99.90
23251;DHT22;11794;49.730;10.088;2022-12-29T15:24:09;10.90;99.90
23251;DHT22;11794;49.730;10.088;2022-12-29T15:26:40;10.80;99.90
23251;DHT22;11794;49.730;10.088;2022-12-29T15:29:47;10.80;99.90
23251;DHT22;11794;49.730;10.088;2022-12-29T15:32:24;10.70;99.90
23251;DHT22;11794;49.730;10.088;2022-12-29T15:34:57;10.60;99.90
23251;DHT22;11794;49.730;10.088;2022-12-29T15:37:34;10.50;99.90
23251;DHT22;11794;49.730;10.088;2022-12-29T15:40:02;10.50;99.90
23251;DHT22;11794;49.730;10.088;2022-12-29T15:45:33;10.50;99.90
23251;DHT22;11794;49.730;10.088;2022-12-29T15:47:59;10.40;99.90
23251;DHT22;11794;49.730;10.088;2022-12-29T15:50:30;10.20;99.90
23251;DHT22;11794;49.730;10.088;2022-12-29T15:52:57;10.10;99.90
23251;DHT22;11794;49.730;10.088;2022-12-29T15:55:34;9.80;99.90
23251;DHT22;11794;49.730;10.088;2022-12-29T15:58:04;9.60;99.90
23251;DHT22;11794;49.730;10.088;2022-12-29T16:00:32;9.40;99.90
23251;DHT22;11794;49.730;10.088;2022-12-29T16:03:03;9.30;99.90
23251;DHT22;11794;49.730;10.088;2022-12-29T16:05:34;9.30;99.90
23251;DHT22;11794;49.730;10.088;2022-12-29T16:08:00;9.20;99.90
23251;DHT22;11794;49.730;10.088;2022-12-29T16:10:27;9.10;99.90
23251;DHT22;11794;49.730;10.088;2022-12-29T16:13:02;9.00;99.90
23251;DHT22;11794;49.730;10.088;2022-12-29T16:15:28;9.00;99.90
23251;DHT22;11794;49.730;10.088;2022-12-29T16:17:54;9.00;99.90
23251;DHT22;11794;49.730;10.088;2022-12-29T16:20:24;9.00;99.90
23251;DHT22;11794;49.730;10.088;2022-12-29T16:22:55;8.90;99.90
23251;DHT22;11794;49.730;10.088;2022-12-29T16:25:31;8.90;99.90
23251;DHT22;11794;49.730;10.088;2022-12-29T16:27:58;9.00;99.90
23251;DHT22;11794;49.730;10.088;2022-12-29T16:30:30;9.00;99.90
23251;DHT22;11794;49.730;10.088;2022-12-29T16:32:57;8.90;99.90
23251;DHT22;11794;49.730;10.088;2022-12-29T16:35:28;8.90;99.90
23251;DHT22;11794;49.730;10.088;2022-12-29T16:38:20;8.90;99.90
23251;DHT22;11794;49.730;10.088;2022-12-29T16:40:53;8.90;99.90
23251;DHT22;11794;49.730;10.088;2022-12-29T16:43:27;8.90;99.90
23251;DHT22;11794;49.730;10.088;2022-12-29T16:48:27;8.90;99.90
23251;DHT22;11794;49.730;10.088;2022-12-29T16:51:03;8.90;99.90
23251;DHT22;11794;49.730;10.088;2022-12-29T16:53:38;8.90;99.90
23251;DHT22;11794;49.730;10.088;2022-12-29T16:56:14;8.90;99.90
23251;DHT22;11794;49.730;10.088;2022-12-29T16:58:40;8.90;99.90
23251;DHT22;11794;49.730;10.088;2022-12-29T17:01:07;8.80;99.90
23251;DHT22;11794;49.730;10.088;2022-12-29T17:03:43;8.80;99.90
23251;DHT22;11794;49.730;10.088;2022-12-29T17:06:19;8.70;99.90
23251;DHT22;11794;49.730;10.088;2022-12-29T17:08:45;8.70;99.90
23251;DHT22;11794;49.730;10.088;2022-12-29T17:11:31;8.60;99.90
23251;DHT22;11794;49.730;10.088;2022-12-29T17:14:39;8.50;99.90
23251;DHT22;11794;49.730;10.088;2022-12-29T17:19:52;8.40;99.90
23251;DHT22;11794;49.730;10.088;2022-12-29T17:22:24;8.40;99.90
23251;DHT22;11794;49.730;10.088;2022-12-29T17:24:55;8.40;99.90
23251;DHT22;11794;49.730;10.088;2022-12-29T17:29:49;8.40;99.90
23251;DHT22;11794;49.730;10.088;2022-12-29T17:32:16;8.40;99.90
23251;DHT22;11794;49.730;10.088;2022-12-29T17:34:41;8.40;99.90
23251;DHT22;11794;49.730;10.088;2022-12-29T17:39:48;8.40;99.90